메인 페이지
METAR-TAF:

METAR-TAF

공항 :

Golden Triangle Regional Airport

콜럼버스/ West Point / Starkville, 미시시피, 미국

위도: 33-27N, 경도: 088-35W, 고도: 80m

현재 날씨관측

예보는 18분 전, 21:56시(UTC)에 발표되었습니다.
7kt
온도 31°C
습도 63%
기압 1012 hPa
시정: 16.1km
고도 3900ft 상공 구름 조금

METAR: KGTR 202156Z 26007KT 10SM FEW039 31/23 A2987 RMK AO2 SLP118 T03110233

시각: 17:14 (22:14 UTC)

예보

예보는 4 시간 35분 전, 17:39시(UTC)에 발표되었습니다.
예보 대상 시간: 20일 18시부터 21일 18시까지 (UTC)
서남서10kt, 순간 최대 풍속 19kt
시정: 10km
고도 4000ft 상공 구름 보통
고도 11000ft 상공 구름 보통
21일 0100시부터 (UTC)
4kt
시정: 10km
고도 25000ft 상공 구름 조금
21일 1200시부터 (UTC)
4kt
시정: 10km
고도 1500ft 상공 흐림
21일 1600시부터 (UTC)
남남서7kt
시정: 10km
고도 2500ft 상공 구름 보통

TAF: KGTR 201739Z 2018/2118 25010G19KT P6SM SCT040 SCT110 FM210100 26004KT P6SM FEW250 FM211200 17004KT P6SM OVC015 FM211600 20007KT P6SM SCT025

4,000개 이상의 공항 관측 자료 및 예보 (METAR 및 TAF 보고).

지도상에서 검색 가능한 기상관측소가 노란 점과 빨간 점으로 표시되어 있습니다.

기상관측소 명을 보려면 표시 위로 마우스를 이동하세요.

날씨 관측과 예보를 보려면 클릭하세요.

지도 변경 : 확대하려면 엑스 표시가 있는 녹색 버튼, 축소하려면 빼기 표시가 있는 녹색 버튼, 다음 페이지의 지도를 보려면 녹색 화살표를 클릭하세요.


METAR-TAF: